Time;durP1;ratioP1;P1;durP2;ratioP2;P2;SDS_P1;SDS_P2;PMS_P1;PMS_P2;Temp;Humidity;BMP_temperature;BMP_pressure;BME280_temperature;BME280_humidity;BME280_pressure;Samples;Min_cycle;Max_cycle;Signal;HPM_P1;HPM_P2
2024/01/17 00:00:51;;;;;;;;;26.33;21.00;;;;;2.72;56.49;99459.38;5067864;28;45476;-82
2024/01/17 00:03:17;;;;;;;;;24.67;21.33;;;;;2.19;55.94;99373.72;5066093;28;45020;-81
2024/01/17 00:05:42;;;;;;;;;24.00;19.67;;;;;2.58;57.11;99441.31;5037772;28;45375;-81
2024/01/17 00:08:09;;;;;;;;;24.33;20.00;;;;;3.13;56.32;99535.72;5061564;28;45232;-81
2024/01/17 00:10:34;;;;;;;;;36.00;29.00;;;;;3.26;56.84;99570.50;5073498;28;45363;-80
2024/01/17 00:13:00;;;;;;;;;29.67;24.00;;;;;3.28;57.32;99561.53;5054166;28;44978;-79
2024/01/17 00:15:25;;;;;;;;;23.67;23.67;;;;;3.28;57.31;99556.28;5074194;28;45252;-80
2024/01/17 00:17:50;;;;;;;;;28.33;21.33;;;;;3.28;57.31;99551.03;5075542;28;45190;-80
2024/01/17 00:20:16;;;;;;;;;25.00;23.33;;;;;3.18;56.44;99518.59;5077161;28;44903;-81
2024/01/17 00:22:42;;;;;;;;;27.67;22.67;;;;;3.24;57.78;99515.50;5073414;28;44944;-81
2024/01/17 00:25:10;;;;;;;;;30.33;25.00;;;;;2.86;57.35;99441.69;5056369;28;45560;-81
2024/01/17 00:27:36;;;;;;;;;21.67;17.00;;;;;3.39;57.05;99496.75;5075064;28;45092;-82
2024/01/17 00:30:02;;;;;;;;;27.33;26.33;;;;;3.56;56.68;99510.16;5069765;28;45259;-81
2024/01/17 00:32:28;;;;;;;;;25.67;22.33;;;;;3.36;57.14;99467.16;5055473;28;45148;-79
2024/01/17 00:34:54;;;;;;;;;24.67;21.00;;;;;3.74;57.11;99509.56;5065482;28;46187;-80
2024/01/17 00:37:19;;;;;;;;;29.33;25.00;;;;;3.79;57.33;99502.94;5072787;28;46177;-80
2024/01/17 00:39:45;;;;;;;;;28.67;24.67;;;;;3.77;56.97;99491.72;5073491;28;45022;-81
2024/01/17 00:42:10;;;;;;;;;27.00;24.00;;;;;3.82;57.11;99497.44;5072723;28;45216;-79
2024/01/17 00:44:38;;;;;;;;;30.00;25.67;;;;;2.91;57.21;99332.72;5071789;28;45503;-77
2024/01/17 00:47:04;;;;;;;;;26.67;25.67;;;;;3.74;57.32;99481.47;5072953;28;45498;-79
2024/01/17 00:49:30;;;;;;;;;27.00;25.67;;;;;3.69;57.67;99485.47;5055430;28;45178;-80
2024/01/17 00:51:55;;;;;;;;;23.67;21.33;;;;;3.15;58.83;99403.31;5072950;28;45371;-79
2024/01/17 00:54:21;;;;;;;;;24.33;22.00;;;;;3.64;58.65;99475.34;5054690;28;46565;-80
2024/01/17 00:56:46;;;;;;;;;26.67;21.00;;;;;3.01;58.39;99372.16;5072938;28;44977;-80
2024/01/17 00:59:12;;;;;;;;;24.00;21.67;;;;;3.68;59.42;99468.88;5074591;28;44985;-79
2024/01/17 01:01:37;;;;;;;;;27.33;26.00;;;;;3.45;58.87;99420.06;5057875;28;45310;-80
2024/01/17 01:04:02;;;;;;;;;27.00;23.33;;;;;3.43;59.24;99422.00;5072775;28;45146;-80
2024/01/17 01:06:28;;;;;;;;;30.33;24.00;;;;;2.42;59.98;99234.53;5068353;28;44980;-79
2024/01/17 01:08:54;;;;;;;;;24.00;20.67;;;;;3.70;59.88;99435.41;5052810;28;45660;-80
2024/01/17 01:11:19;;;;;;;;;27.00;23.67;;;;;3.65;60.20;99427.09;5054500;28;44910;-80
2024/01/17 01:13:44;;;;;;;;;29.33;24.67;;;;;3.31;59.70;99377.41;5038284;28;46778;-79
2024/01/17 01:16:10;;;;;;;;;26.67;22.33;;;;;3.72;60.09;99416.88;5073058;28;45054;-79
2024/01/17 01:18:36;;;;;;;;;26.67;21.33;;;;;3.04;60.39;99317.59;5075515;28;44998;-79
2024/01/17 01:21:01;;;;;;;;;27.00;24.00;;;;;3.22;60.21;99335.38;5055994;28;44887;-78
2024/01/17 01:23:27;;;;;;;;;27.67;26.33;;;;;3.12;60.79;99324.81;5074808;28;46107;-78
2024/01/17 01:25:53;;;;;;;;;28.67;25.33;;;;;3.30;61.30;99369.66;5072126;28;45243;-80
2024/01/17 01:28:18;;;;;;;;;20.67;19.67;;;;;2.57;61.84;99250.75;5072389;28;45236;-78
2024/01/17 01:30:44;;;;;;;;;29.67;25.33;;;;;2.23;62.09;99208.19;5050547;28;45243;-79
2024/01/17 01:33:09;;;;;;;;;33.00;27.33;;;;;3.14;62.37;99328.13;5054881;28;45924;-80
2024/01/17 01:35:35;;;;;;;;;32.33;28.67;;;;;2.59;62.15;99238.34;5068366;28;45183;-80
2024/01/17 01:38:00;;;;;;;;;36.33;28.67;;;;;3.15;62.76;99329.78;5056480;28;45116;-79
2024/01/17 01:40:25;;;;;;;;;28.00;25.00;;;;;3.27;62.87;99354.19;5076061;28;45162;-80
2024/01/17 01:42:53;;;;;;;;;35.00;28.67;;;;;3.25;63.67;99350.84;5071806;28;45515;-79
2024/01/17 01:45:18;;;;;;;;;40.33;29.00;;;;;3.02;63.39;99305.56;5073016;28;45314;-79
2024/01/17 01:47:44;;;;;;;;;29.00;25.67;;;;;3.05;63.14;99307.91;5076157;28;44945;-80
2024/01/17 01:50:11;;;;;;;;;31.00;26.33;;;;;3.07;64.01;99308.63;5075099;28;44878;-79
2024/01/17 01:52:40;;;;;;;;;23.67;23.67;;;;;3.02;64.21;99276.69;5073589;28;45336;-79
2024/01/17 01:55:06;;;;;;;;;35.00;31.67;;;;;2.97;64.31;99266.56;5064447;28;45445;-79
2024/01/17 01:57:36;;;;;;;;;33.67;28.00;;;;;2.97;64.68;99258.69;5067507;28;45386;-80
2024/01/17 02:00:04;;;;;;;;;28.67;27.00;;;;;3.47;63.95;99315.69;5047671;28;45241;-79
2024/01/17 02:02:31;;;;;;;;;27.33;27.33;;;;;2.97;63.86;99221.09;5066313;28;45386;-81
2024/01/17 02:04:57;;;;;;;;;27.67;27.33;;;;;3.30;64.52;99286.44;5056572;28;44970;-80
2024/01/17 02:07:25;;;;;;;;;40.33;24.67;;;;;3.21;64.26;99266.25;5078658;28;44899;-78
2024/01/17 02:09:50;;;;;;;;;25.33;25.00;;;;;3.29;65.01;99290.03;5075707;28;45394;-78
2024/01/17 02:12:16;;;;;;;;;25.33;20.67;;;;;3.20;65.70;99272.44;5076210;28;45692;-80
2024/01/17 02:14:41;;;;;;;;;26.00;26.00;;;;;3.20;65.39;99263.72;5072459;28;45011;-80
2024/01/17 02:17:10;;;;;;;;;29.00;25.00;;;;;2.67;65.87;99157.19;5056997;28;45126;-79
2024/01/17 02:19:38;;;;;;;;;34.67;29.00;;;;;3.12;66.29;99216.31;5073107;28;45273;-79
2024/01/17 02:22:04;;;;;;;;;35.67;28.00;;;;;3.15;65.79;99209.00;5071085;28;45470;-78
2024/01/17 02:24:31;;;;;;;;;28.33;25.00;;;;;2.99;65.81;99150.91;5071548;28;45122;-79
2024/01/17 02:26:59;;;;;;;;;31.67;29.67;;;;;3.48;65.70;99212.25;5056901;28;45307;-80
2024/01/17 02:29:25;;;;;;;;;33.00;31.33;;;;;3.03;65.84;99121.66;5055530;28;45825;-77
2024/01/17 02:31:51;;;;;;;;;31.33;27.00;;;;;3.60;66.32;99195.38;5059559;28;46319;-79
2024/01/17 02:34:17;;;;;;;;;28.00;25.33;;;;;3.65;65.93;99198.44;5056140;28;45427;-81
2024/01/17 02:36:42;;;;;;;;;33.00;26.00;;;;;3.72;65.63;99189.03;5072195;28;45045;-79
2024/01/17 02:39:09;;;;;;;;;26.33;24.00;;;;;3.78;66.00;99185.84;5062578;28;45385;-80
2024/01/17 02:41:34;;;;;;;;;33.33;29.00;;;;;3.35;65.91;99121.38;5054747;28;46126;-80
2024/01/17 02:44:00;;;;;;;;;36.67;32.33;;;;;2.78;65.46;99026.81;5057986;28;45317;-79
2024/01/17 02:46:28;;;;;;;;;37.00;31.00;;;;;3.51;66.67;99141.03;5058411;28;45295;-80
2024/01/17 02:48:53;;;;;;;;;31.00;27.67;;;;;3.71;66.74;99168.97;5056736;28;45652;-81
2024/01/17 02:51:18;;;;;;;;;33.67;28.00;;;;;3.65;66.77;99169.53;5071003;28;45528;-79
2024/01/17 02:53:44;;;;;;;;;32.67;31.00;;;;;3.61;67.01;99168.16;5068399;28;45369;-80
2024/01/17 02:56:09;;;;;;;;;35.67;27.00;;;;;2.66;66.70;99007.78;5051890;28;45196;-79
2024/01/17 02:58:34;;;;;;;;;30.00;28.00;;;;;3.04;67.10;99072.59;5072610;28;45033;-78
2024/01/17 03:01:00;;;;;;;;;32.00;29.00;;;;;3.55;67.40;99145.03;5059652;28;45259;-79
2024/01/17 03:03:25;;;;;;;;;29.67;21.33;;;;;3.36;67.21;99107.28;5049522;28;45067;-78
2024/01/17 03:05:51;;;;;;;;;29.33;25.00;;;;;3.60;67.14;99145.44;5070050;28;45457;-80
2024/01/17 03:08:16;;;;;;;;;23.33;22.67;;;;;3.61;67.31;99145.34;5075948;28;45166;-78
2024/01/17 03:10:41;;;;;;;;;33.33;27.00;;;;;3.30;66.85;99073.69;5073241;28;45336;-80
2024/01/17 03:13:08;;;;;;;;;30.00;28.00;;;;;3.44;67.04;99105.78;5074220;28;45032;-81
2024/01/17 03:15:34;;;;;;;;;36.00;30.67;;;;;3.56;68.15;99126.50;5058439;28;45126;-78
2024/01/17 03:18:00;;;;;;;;;38.33;29.33;;;;;2.43;68.29;98950.31;5075282;28;44864;-77
2024/01/17 03:20:25;;;;;;;;;35.00;30.67;;;;;3.00;68.41;99037.06;5073392;28;45582;-79
2024/01/17 03:22:53;;;;;;;;;35.67;29.67;;;;;3.34;68.40;99092.63;5072226;28;45270;-78
2024/01/17 03:25:19;;;;;;;;;29.67;27.67;;;;;3.43;69.18;99107.59;5072529;28;45341;-79
2024/01/17 03:27:45;;;;;;;;;30.33;26.67;;;;;3.12;69.37;99049.09;5055454;28;45263;-81
2024/01/17 03:30:10;;;;;;;;;32.00;27.67;;;;;2.92;69.26;99008.88;5055743;28;45317;-82
2024/01/17 03:32:36;;;;;;;;;27.33;22.67;;;;;3.42;69.22;99084.06;5074012;28;45266;-78
2024/01/17 03:35:02;;;;;;;;;29.00;26.50;;;;;3.05;69.71;99021.75;5074170;28;45120;-77
2024/01/17 03:37:27;;;;;;;;;35.00;31.67;;;;;3.33;69.95;99060.28;5073214;28;45113;-77
2024/01/17 03:39:53;;;;;;;;;30.00;24.33;;;;;3.39;69.61;99048.38;5076377;28;45675;-80
2024/01/17 03:42:18;;;;;;;;;31.33;27.33;;;;;3.46;69.89;99043.41;5058103;28;45079;-78
2024/01/17 03:44:44;;;;;;;;;32.00;24.67;;;;;3.33;70.10;99013.00;5054598;22;46558;-79
2024/01/17 03:47:14;;;;;;;;;31.00;27.33;;;;;3.40;70.20;99000.13;5052189;28;45048;-80
2024/01/17 03:49:40;;;;;;;;;28.33;23.67;;;;;3.68;69.25;99027.34;5055189;28;45454;-80
2024/01/17 03:52:07;;;;;;;;;32.67;25.00;;;;;3.81;69.42;99021.78;5067025;28;45155;-80
2024/01/17 03:54:36;;;;;;;;;28.33;22.67;;;;;3.84;69.40;98996.03;5055636;28;45207;-80
2024/01/17 03:57:03;;;;;;;;;28.00;26.67;;;;;3.82;68.91;98974.31;5056619;28;45304;-80
2024/01/17 03:59:30;;;;;;;;;28.33;23.33;;;;;4.05;68.72;98989.72;5071755;28;46681;-80
2024/01/17 04:01:58;;;;;;;;;34.67;29.67;;;;;4.07;69.49;98980.72;5055468;28;45140;-78
2024/01/17 04:04:24;;;;;;;;;31.33;28.00;;;;;4.07;69.56;98970.19;5054940;28;45034;-79
2024/01/17 04:06:49;;;;;;;;;39.33;28.00;;;;;3.64;68.84;98902.47;5055525;28;45198;-77
2024/01/17 04:09:15;;;;;;;;;25.00;24.67;;;;;4.04;69.12;98959.97;5055036;28;46011;-79
2024/01/17 04:11:40;;;;;;;;;32.33;26.00;;;;;4.06;69.10;98958.00;5054068;28;44986;-77
2024/01/17 04:14:07;;;;;;;;;26.67;25.00;;;;;4.05;69.99;98940.59;5035042;28;44845;-79
2024/01/17 04:16:35;;;;;;;;;30.00;24.00;;;;;3.62;68.66;98859.75;5033924;28;44921;-79
2024/01/17 04:19:00;;;;;;;;;26.67;25.00;;;;;3.38;70.27;98836.59;5050095;28;45529;-78
2024/01/17 04:21:26;;;;;;;;;21.00;18.67;;;;;3.61;70.40;98869.41;5033965;28;45134;-77
2024/01/17 04:23:52;;;;;;;;;23.67;21.67;;;;;3.83;70.64;98896.28;5034924;28;45337;-78
2024/01/17 04:26:23;;;;;;;;;19.00;19.00;;;;;3.40;70.48;98818.06;5052016;28;45081;-78
2024/01/17 04:28:57;;;;;;;;;19.67;17.67;;;;;3.87;70.15;98887.13;5052675;28;45275;-78
2024/01/17 04:31:30;;;;;;;;;24.00;23.67;;;;;3.77;71.05;98857.44;5047406;28;44946;-79
2024/01/17 04:33:57;;;;;;;;;26.33;22.00;;;;;3.83;69.62;98860.31;5040948;28;44982;-78
2024/01/17 04:36:24;;;;;;;;;25.67;23.33;;;;;3.85;70.00;98850.47;5055598;28;45330;-79
2024/01/17 04:38:49;;;;;;;;;17.00;16.00;;;;;3.98;69.94;98855.34;5055774;28;45805;-77
2024/01/17 04:41:16;;;;;;;;;25.33;19.33;;;;;3.81;70.41;98807.06;5052787;28;45194;-80
2024/01/17 04:43:44;;;;;;;;;24.33;21.00;;;;;3.66;70.14;98782.25;5055316;28;45097;-80
2024/01/17 04:46:12;;;;;;;;;20.67;20.67;;;;;3.91;69.51;98814.88;5052284;28;45234;-79
2024/01/17 04:48:39;;;;;;;;;23.00;21.00;;;;;4.04;70.14;98823.22;5038131;28;45678;-77
2024/01/17 04:51:05;;;;;;;;;23.00;21.67;;;;;4.03;70.86;98826.00;5036641;28;45502;-79
2024/01/17 04:53:32;;;;;;;;;31.00;26.00;;;;;4.10;70.84;98809.47;5036312;28;45553;-78
2024/01/17 04:56:08;;;;;;;;;21.00;19.67;;;;;4.10;70.88;98796.31;5036234;28;45663;-78
2024/01/17 04:58:33;;;;;;;;;23.00;23.00;;;;;3.96;70.82;98786.31;5039543;28;46092;-78
2024/01/17 05:00:59;;;;;;;;;26.67;21.00;;;;;4.00;71.36;98794.72;5034983;28;45644;-77
2024/01/17 05:03:25;;;;;;;;;26.00;22.67;;;;;4.04;71.53;98786.41;5036128;28;45548;-79
2024/01/17 05:05:50;;;;;;;;;26.33;20.00;;;;;4.10;70.46;98784.97;5044482;28;45452;-79
2024/01/17 05:08:16;;;;;;;;;21.00;19.67;;;;;3.96;70.48;98774.00;5035750;28;46005;-79
2024/01/17 05:10:43;;;;;;;;;25.33;23.00;;;;;4.12;70.58;98785.66;5035586;28;45307;-79
2024/01/17 05:13:08;;;;;;;;;15.67;14.33;;;;;3.55;70.75;98686.06;5036639;28;45452;-80
2024/01/17 05:15:34;;;;;;;;;27.00;23.00;;;;;4.28;70.24;98798.94;5049719;28;45675;-79
2024/01/17 05:17:59;;;;;;;;;26.67;20.67;;;;;4.24;70.31;98793.19;5064753;28;45449;-79
2024/01/17 05:20:25;;;;;;;;;23.33;19.67;;;;;3.52;70.64;98669.78;5056592;28;45746;-78
2024/01/17 05:22:50;;;;;;;;;25.67;25.67;;;;;4.14;71.58;98775.81;5048728;28;45173;-79
2024/01/17 05:25:17;;;;;;;;;23.33;20.67;;;;;3.85;71.43;98728.72;5055575;28;44915;-79
2024/01/17 05:27:50;;;;;;;;;23.00;21.33;;;;;4.00;71.46;98752.66;5048125;28;46960;-77
2024/01/17 05:30:15;;;;;;;;;25.33;19.33;;;;;4.24;70.57;98781.84;5066230;28;45074;-78
2024/01/17 05:32:43;;;;;;;;;26.00;23.33;;;;;3.35;70.96;98621.53;5075186;28;44854;-78
2024/01/17 05:35:09;;;;;;;;;25.33;23.33;;;;;3.27;71.74;98622.28;5054297;28;44918;-78
2024/01/17 05:37:35;;;;;;;;;32.67;24.33;;;;;3.85;71.22;98698.03;5072896;28;45303;-80
2024/01/17 05:40:00;;;;;;;;;25.67;22.00;;;;;4.13;72.33;98742.59;5039832;28;44944;-76
2024/01/17 05:42:26;;;;;;;;;25.33;22.00;;;;;4.10;72.51;98738.47;5052879;28;45122;-79
2024/01/17 05:44:51;;;;;;;;;23.67;20.67;;;;;3.81;73.01;98699.31;5051646;28;45311;-80
2024/01/17 05:47:17;;;;;;;;;27.00;23.67;;;;;4.06;72.13;98718.72;5051482;28;45865;-78
2024/01/17 05:49:42;;;;;;;;;19.00;19.00;;;;;4.05;72.10;98697.84;5052168;28;45203;-79
2024/01/17 05:52:08;;;;;;;;;24.33;20.00;;;;;4.24;71.86;98713.44;5049911;28;45117;-79
2024/01/17 05:54:33;;;;;;;;;21.67;18.33;;;;;3.79;70.98;98611.03;5056555;28;45097;-79
2024/01/17 05:56:58;;;;;;;;;20.33;17.67;;;;;4.20;70.96;98648.94;5052212;28;45026;-79
2024/01/17 05:59:24;;;;;;;;;20.33;19.00;;;;;4.39;70.28;98664.53;5033841;28;45787;-77
2024/01/17 06:01:50;;;;;;;;;17.67;16.67;;;;;4.56;70.32;98674.16;5055309;28;45389;-78
2024/01/17 06:04:15;;;;;;;;;21.00;20.00;;;;;4.26;70.99;98632.56;5034736;28;45490;-78
2024/01/17 06:06:41;;;;;;;;;25.33;18.67;;;;;3.99;71.15;98586.22;5035756;28;46507;-78
2024/01/17 06:09:07;;;;;;;;;24.00;20.33;;;;;3.74;71.18;98532.66;5049049;28;45068;-78
2024/01/17 06:11:33;;;;;;;;;23.00;20.33;;;;;4.33;71.05;98617.81;5073126;28;45045;-79
2024/01/17 06:13:59;;;;;;;;;28.33;23.00;;;;;3.88;71.53;98542.63;5050754;28;45506;-79
2024/01/17 06:16:25;;;;;;;;;24.00;20.33;;;;;4.26;71.98;98609.72;5047717;28;45316;-79
2024/01/17 06:18:50;;;;;;;;;20.33;20.33;;;;;4.32;72.31;98616.16;5042900;28;45491;-78
2024/01/17 06:21:16;;;;;;;;;19.67;18.67;;;;;4.20;73.63;98599.00;5040715;28;45451;-79
2024/01/17 06:23:41;;;;;;;;;26.00;21.00;;;;;4.14;73.47;98586.47;5042260;28;45540;-78
2024/01/17 06:26:08;;;;;;;;;24.33;20.33;;;;;3.22;72.82;98437.28;5034348;28;45469;-79
2024/01/17 06:28:35;;;;;;;;;18.33;17.33;;;;;4.07;73.70;98583.66;5035929;28;45562;-79
2024/01/17 06:31:00;;;;;;;;;23.00;21.00;;;;;3.95;73.34;98555.97;5029669;28;45610;-76
2024/01/17 06:33:26;;;;;;;;;17.00;17.00;;;;;4.05;74.46;98576.91;5047412;28;45633;-80
2024/01/17 06:35:51;;;;;;;;;18.67;18.67;;;;;3.70;73.79;98498.97;5050438;28;45612;-82
2024/01/17 06:38:17;;;;;;;;;15.67;15.00;;;;;3.86;73.45;98506.97;5049111;28;45324;-79
2024/01/17 06:40:42;;;;;;;;;16.33;16.33;;;;;4.12;73.25;98546.34;5041580;28;45585;-79
2024/01/17 06:43:07;;;;;;;;;17.33;15.00;;;;;3.85;74.10;98494.81;5048873;28;45234;-79
2024/01/17 06:45:33;;;;;;;;;17.00;15.67;;;;;3.92;74.60;98494.00;5034261;28;45962;-79
2024/01/17 06:48:01;;;;;;;;;17.67;15.67;;;;;3.96;73.67;98482.19;5048723;28;45363;-81
2024/01/17 06:50:26;;;;;;;;;17.00;13.67;;;;;3.98;73.42;98471.50;5037993;28;45374;-80
2024/01/17 06:52:52;;;;;;;;;15.67;15.67;;;;;4.13;73.23;98482.28;5032468;28;45514;-79
2024/01/17 06:55:17;;;;;;;;;23.00;19.67;;;;;3.87;73.83;98417.44;5032303;28;45540;-81
2024/01/17 06:57:42;;;;;;;;;29.00;20.00;;;;;3.69;73.99;98387.78;5023520;28;45530;-80
2024/01/17 07:00:08;;;;;;;;;20.00;17.67;;;;;4.06;74.41;98447.09;5035474;28;45377;-78
2024/01/17 07:02:34;;;;;;;;;20.00;15.00;;;;;4.40;74.72;98491.72;5036196;28;45278;-80
2024/01/17 07:04:59;;;;;;;;;14.33;14.33;;;;;4.49;73.48;98507.38;5017266;28;46997;-80
2024/01/17 07:07:24;;;;;;;;;16.33;16.33;;;;;3.95;74.34;98433.22;5016273;28;45582;-79
2024/01/17 07:09:50;;;;;;;;;16.33;16.00;;;;;4.57;74.23;98525.00;5018125;28;45428;-80
2024/01/17 07:12:16;;;;;;;;;15.00;15.00;;;;;3.17;73.83;98297.75;5019954;28;45343;-80
2024/01/17 07:14:41;;;;;;;;;21.33;19.67;;;;;3.61;73.86;98391.22;5025227;28;45407;-82
2024/01/17 07:17:08;;;;;;;;;11.00;11.00;;;;;4.21;74.13;98467.34;5033169;28;45482;-81
2024/01/17 07:19:36;;;;;;;;;20.67;16.33;;;;;4.53;74.63;98492.91;5034149;28;45292;-78
2024/01/17 07:22:02;;;;;;;;;13.00;12.33;;;;;4.42;74.36;98466.09;5028379;28;45711;-81
2024/01/17 07:24:27;;;;;;;;;21.00;20.00;;;;;4.59;74.78;98484.38;5035921;28;47383;-80
2024/01/17 07:26:52;;;;;;;;;22.00;20.67;;;;;4.40;75.21;98447.81;5038065;28;45338;-81
2024/01/17 07:29:18;;;;;;;;;25.67;18.00;;;;;4.15;74.43;98415.38;5045346;28;45258;-80
2024/01/17 07:31:43;;;;;;;;;16.00;16.00;;;;;3.96;75.54;98378.84;5052512;28;45062;-80
2024/01/17 07:34:09;;;;;;;;;19.00;13.67;;;;;4.54;75.67;98455.09;5052666;28;45871;-82
2024/01/17 07:36:34;;;;;;;;;15.33;15.33;;;;;4.14;75.56;98397.97;5053700;28;45336;-80
2024/01/17 07:39:00;;;;;;;;;14.67;14.00;;;;;4.67;75.60;98477.50;5053553;28;45351;-79
2024/01/17 07:41:25;;;;;;;;;20.00;17.67;;;;;4.74;74.98;98457.44;5053997;28;45140;-79
2024/01/17 07:43:51;;;;;;;;;15.00;14.00;;;;;4.64;74.63;98419.94;5051236;28;45653;-80
2024/01/17 07:46:16;;;;;;;;;21.00;16.00;;;;;4.77;74.41;98441.31;5044722;28;45357;-79
2024/01/17 07:48:42;;;;;;;;;15.33;15.33;;;;;4.59;75.73;98429.09;5036815;28;45346;-79
2024/01/17 07:51:08;;;;;;;;;21.00;16.67;;;;;3.86;75.98;98283.56;5039014;28;45368;-79
2024/01/17 07:53:33;;;;;;;;;15.00;13.67;;;;;4.46;76.92;98380.59;5050890;28;45130;-79
2024/01/17 07:56:00;;;;;;;;;20.00;16.67;;;;;3.78;75.67;98265.94;5049911;28;45083;-80
2024/01/17 07:58:25;;;;;;;;;18.67;16.00;;;;;4.66;75.52;98407.44;5048576;28;45413;-79
2024/01/17 08:00:50;;;;;;;;;13.67;9.67;;;;;4.77;76.25;98426.34;5039314;28;45596;-78
2024/01/17 08:03:16;;;;;;;;;18.67;15.33;;;;;4.52;75.45;98386.03;5023703;28;47037;-80
2024/01/17 08:05:41;;;;;;;;;14.33;13.33;;;;;4.42;75.25;98347.72;5038300;28;45422;-80
2024/01/17 08:08:07;;;;;;;;;13.67;13.67;;;;;4.77;74.74;98380.75;5021060;28;45276;-81
2024/01/17 08:10:33;;;;;;;;;10.33;8.67;;;;;5.03;74.58;98415.66;5037659;28;45295;-79
2024/01/17 08:12:58;;;;;;;;;19.00;16.67;;;;;4.97;74.46;98399.69;5036855;28;45446;-79
2024/01/17 08:15:24;;;;;;;;;14.67;9.67;;;;;4.98;75.56;98390.78;5037260;28;45436;-79
2024/01/17 08:17:50;;;;;;;;;15.33;11.33;;;;;4.87;75.74;98377.00;5035748;28;45333;-80
2024/01/17 08:20:16;;;;;;;;;16.67;13.67;;;;;4.87;74.64;98378.81;5037708;28;45657;-80
2024/01/17 08:22:43;;;;;;;;;12.33;11.33;;;;;4.68;75.01;98329.13;5038063;28;45451;-79
2024/01/17 08:25:08;;;;;;;;;18.33;16.33;;;;;4.67;75.90;98320.41;5038412;28;45376;-79
2024/01/17 08:27:34;;;;;;;;;16.33;14.33;;;;;4.76;75.82;98326.47;5038952;28;45371;-80
2024/01/17 08:29:59;;;;;;;;;16.33;15.33;;;;;4.78;75.58;98327.13;5038512;28;45668;-79
2024/01/17 08:32:24;;;;;;;;;13.33;13.33;;;;;4.43;75.69;98276.53;5037968;28;45284;-80
2024/01/17 08:34:50;;;;;;;;;13.00;11.67;;;;;4.82;74.96;98324.03;5038026;28;45352;-81
2024/01/17 08:37:16;;;;;;;;;14.00;12.33;;;;;4.74;75.29;98304.78;5039418;28;45447;-80
2024/01/17 08:39:44;;;;;;;;;10.67;10.33;;;;;4.74;75.73;98288.97;5041545;28;45343;-82
2024/01/17 08:42:11;;;;;;;;;11.00;11.00;;;;;4.87;75.08;98279.59;5042388;28;45503;-81
2024/01/17 08:44:37;;;;;;;;;15.00;15.00;;;;;5.11;74.43;98297.13;5040834;28;45284;-81
2024/01/17 08:47:02;;;;;;;;;12.33;10.67;;;;;5.13;74.25;98302.22;5043207;28;45383;-79
2024/01/17 08:49:28;;;;;;;;;14.67;11.33;;;;;4.94;74.29;98248.13;5044200;28;45403;-78
2024/01/17 08:51:54;;;;;;;;;12.00;10.33;;;;;5.04;74.80;98280.38;5045088;28;46124;-80
2024/01/17 08:54:19;;;;;;;;;12.00;10.33;;;;;5.10;74.19;98279.69;5048182;28;45500;-78
2024/01/17 08:56:46;;;;;;;;;10.33;10.33;;;;;5.05;74.81;98279.38;5042707;28;45463;-80
2024/01/17 08:59:12;;;;;;;;;12.33;11.33;;;;;4.96;75.77;98261.94;5032652;28;45486;-80
2024/01/17 09:01:37;;;;;;;;;15.33;12.33;;;;;4.88;75.95;98236.47;5036266;28;45516;-80
2024/01/17 09:04:03;;;;;;;;;13.33;11.00;;;;;4.05;76.27;98116.81;5040268;28;45468;-80
2024/01/17 09:06:28;;;;;;;;;12.33;9.67;;;;;3.34;76.48;97992.22;5036982;28;45591;-79
2024/01/17 09:08:54;;;;;;;;;14.33;12.33;;;;;5.04;75.42;98256.66;5019926;28;45453;-81
2024/01/17 09:11:19;;;;;;;;;12.33;11.67;;;;;4.24;76.07;98114.63;5036458;28;45361;-81
2024/01/17 09:13:46;;;;;;;;;12.67;12.67;;;;;4.84;75.82;98223.81;5038817;28;45352;-78
2024/01/17 09:16:11;;;;;;;;;14.00;11.00;;;;;4.77;76.72;98214.94;5036159;28;45499;-82
2024/01/17 09:18:37;;;;;;;;;11.00;9.00;;;;;4.38;76.94;98123.59;5036840;28;45467;-80
2024/01/17 09:21:02;;;;;;;;;16.00;15.00;;;;;5.05;76.63;98218.81;5037494;28;46050;-82
2024/01/17 09:23:28;;;;;;;;;8.00;7.00;;;;;5.30;75.77;98231.88;5020377;28;45522;-81
2024/01/17 09:25:53;;;;;;;;;10.00;10.00;;;;;5.34;75.91;98223.44;5036709;28;45502;-82
2024/01/17 09:28:18;;;;;;;;;9.67;9.00;;;;;5.33;76.07;98221.81;5036652;28;45319;-81
2024/01/17 09:30:44;;;;;;;;;9.67;9.67;;;;;5.34;75.64;98212.91;5032236;28;46440;-80
2024/01/17 09:33:09;;;;;;;;;11.00;9.33;;;;;5.39;76.16;98200.03;5016961;28;45432;-78
2024/01/17 09:35:42;;;;;;;;;12.00;9.67;;;;;5.40;76.49;98206.94;5035807;28;45203;-79
2024/01/17 09:38:08;;;;;;;;;14.33;9.67;;;;;4.40;76.63;98055.88;5035005;28;45591;-82
2024/01/17 09:40:34;;;;;;;;;9.33;8.00;;;;;5.35;76.16;98179.47;5016087;28;46529;-80
2024/01/17 09:43:02;;;;;;;;;9.67;8.33;;;;;5.48;75.32;98204.28;5039529;28;45517;-80
2024/01/17 09:45:29;;;;;;;;;12.67;8.00;;;;;5.52;75.23;98202.09;5051290;28;45007;-79
2024/01/17 09:47:56;;;;;;;;;7.33;5.33;;;;;5.58;75.63;98198.75;5031436;28;45126;-80
2024/01/17 09:50:22;;;;;;;;;12.00;11.00;;;;;5.17;75.43;98117.34;5032825;28;45666;-80
2024/01/17 09:52:48;;;;;;;;;12.00;10.00;;;;;5.74;75.62;98187.31;5033180;28;45266;-80
2024/01/17 09:55:19;;;;;;;;;7.33;5.00;;;;;5.73;74.59;98180.38;5027348;28;45038;-80
2024/01/17 09:57:50;;;;;;;;;10.00;9.00;;;;;5.73;75.13;98162.75;5051533;28;44954;-78
2024/01/17 10:00:16;;;;;;;;;11.00;9.00;;;;;5.61;73.95;98137.00;5050607;28;45329;-79
2024/01/17 10:02:42;;;;;;;;;7.33;7.33;;;;;5.45;74.41;98119.50;5053872;28;45371;-80
2024/01/17 10:05:11;;;;;;;;;9.00;8.00;;;;;5.45;74.06;98125.56;5054752;28;44596;-80
2024/01/17 10:07:37;;;;;;;;;8.33;8.33;;;;;5.64;74.90;98153.28;5054250;28;45256;-79
2024/01/17 10:10:04;;;;;;;;;8.00;8.00;;;;;5.11;74.80;98057.47;5069413;28;45834;-80
2024/01/17 10:12:30;;;;;;;;;8.67;8.00;;;;;5.88;74.96;98178.63;5050101;28;45172;-78
2024/01/17 10:15:05;;;;;;;;;10.67;9.67;;;;;5.74;74.77;98132.75;5037001;28;45104;-79
2024/01/17 10:17:37;;;;;;;;;10.00;9.00;;;;;5.83;75.57;98173.06;5048864;28;45164;-78
2024/01/17 10:20:02;;;;;;;;;10.33;9.00;;;;;5.35;75.48;98097.81;5038097;28;46254;-78
2024/01/17 10:22:28;;;;;;;;;9.67;9.00;;;;;5.70;75.93;98102.47;5021423;28;45530;-80
2024/01/17 10:24:53;;;;;;;;;12.67;10.33;;;;;5.87;75.06;98141.91;5048078;28;44977;-78
2024/01/17 10:27:19;;;;;;;;;7.67;7.67;;;;;5.67;75.85;98110.75;5047829;28;45424;-80
2024/01/17 10:29:45;;;;;;;;;16.00;12.67;;;;;5.73;76.09;98120.56;5049778;28;45644;-80
2024/01/17 10:32:16;;;;;;;;;17.00;13.33;;;;;5.70;76.26;98117.47;5052073;28;44989;-79
2024/01/17 10:34:41;;;;;;;;;18.33;11.67;;;;;5.38;76.62;98048.22;5052778;28;45089;-79
2024/01/17 10:37:11;;;;;;;;;13.00;12.67;;;;;5.72;76.17;98073.31;5052979;28;45116;-81
2024/01/17 10:39:36;;;;;;;;;16.67;14.33;;;;;5.19;76.63;97993.38;5054365;28;45124;-77
2024/01/17 10:42:05;;;;;;;;;16.67;14.33;;;;;5.73;76.51;98086.31;5051735;28;45177;-79
2024/01/17 10:44:31;;;;;;;;;19.33;15.33;;;;;5.87;76.93;98071.53;5040021;28;45169;-80
2024/01/17 10:46:56;;;;;;;;;14.00;13.00;;;;;5.39;75.97;98004.25;5032698;28;45175;-81
2024/01/17 10:49:23;;;;;;;;;13.33;12.00;;;;;5.91;77.08;98064.09;5024825;28;45467;-79
2024/01/17 10:52:14;;;;;;;;;14.00;12.67;;;;;5.90;76.79;98059.81;5025439;28;45153;-79
2024/01/17 10:54:50;;;;;;;;;19.00;17.00;;;;;5.94;76.61;98045.28;5028596;28;45077;-81
2024/01/17 10:57:19;;;;;;;;;17.00;15.67;;;;;6.17;75.68;98069.75;5033972;28;45172;-79
2024/01/17 10:59:49;;;;;;;;;13.33;13.00;;;;;6.19;76.58;98065.13;5031974;28;45942;-79
2024/01/17 11:02:22;;;;;;;;;13.67;13.67;;;;;6.15;76.01;98053.28;5030014;28;45218;-79
2024/01/17 11:05:12;;;;;;;;;18.00;15.33;;;;;5.90;76.67;98018.47;5048162;28;45296;-79
2024/01/17 11:07:40;;;;;;;;;20.67;17.33;;;;;6.07;76.13;98037.56;5049411;28;45291;-79
2024/01/17 11:10:10;;;;;;;;;16.33;15.33;;;;;6.07;76.18;98034.94;5048516;28;46191;-80
2024/01/17 11:12:37;;;;;;;;;14.33;12.67;;;;;5.24;77.12;97880.44;5051568;28;45033;-79
2024/01/17 11:15:06;;;;;;;;;19.00;16.00;;;;;6.13;76.30;98039.47;5051429;28;45218;-82
2024/01/17 11:17:36;;;;;;;;;18.67;15.67;;;;;5.49;76.40;97891.53;5032936;28;45250;-82
2024/01/17 11:20:08;;;;;;;;;21.00;20.33;;;;;6.40;76.76;98035.34;5052048;28;45775;-79
2024/01/17 11:22:39;;;;;;;;;18.00;16.33;;;;;6.42;77.22;98053.66;5051621;28;45058;-81